createdAt,value
2022-10-01T00:02:18.549Z,98446.83
2022-10-01T00:07:20.840Z,98448.94
2022-10-01T00:12:23.387Z,98456.93
2022-10-01T00:17:29.984Z,98459.36
2022-10-01T00:22:37.239Z,98451.51
2022-10-01T00:27:50.669Z,98447.46
2022-10-01T00:32:55.075Z,98445.80
2022-10-01T00:38:01.728Z,98455.90
2022-10-01T00:43:22.601Z,98456.67
2022-10-01T00:48:29.704Z,98456.82
2022-10-01T00:53:32.996Z,98457.08
2022-10-01T00:58:36.225Z,98453.27
2022-10-01T01:03:52.613Z,98442.35
2022-10-01T01:08:56.271Z,98448.07
2022-10-01T01:14:43.831Z,98444.63
2022-10-01T01:20:21.155Z,98436.16
2022-10-01T01:25:35.985Z,98436.11
2022-10-01T01:30:42.771Z,98439.27
2022-10-01T01:36:00.240Z,98443.30
2022-10-01T01:41:12.311Z,98443.40
2022-10-01T01:46:33.858Z,98450.77
2022-10-01T01:51:49.247Z,98451.06
2022-10-01T01:57:18.251Z,98452.25
2022-10-01T02:02:28.091Z,98450.98
2022-10-01T02:07:43.791Z,98448.91
2022-10-01T02:13:38.822Z,98452.30
2022-10-01T02:18:57.735Z,98446.25
2022-10-01T02:24:31.320Z,98443.40
2022-10-01T02:29:40.975Z,98454.72
2022-10-01T02:34:46.232Z,98456.72
2022-10-01T02:39:53.033Z,98448.62
2022-10-01T02:45:02.657Z,98442.34
2022-10-01T02:50:57.830Z,98448.77
2022-10-01T02:56:05.242Z,98452.77
2022-10-01T03:01:15.437Z,98452.41
2022-10-01T03:06:23.918Z,98450.85
2022-10-01T03:11:30.432Z,98447.41
2022-10-01T03:16:33.644Z,98444.81
2022-10-01T03:22:08.603Z,98438.42
2022-10-01T03:27:14.371Z,98432.30
2022-10-01T03:33:03.647Z,98421.96
2022-10-01T03:38:29.412Z,98411.82
2022-10-01T03:43:59.658Z,98408.90
2022-10-01T03:49:03.780Z,98403.62
2022-10-01T03:54:22.687Z,98400.88
2022-10-01T03:59:28.749Z,98394.61
2022-10-01T04:05:20.133Z,98394.81
2022-10-01T04:10:22.587Z,98386.36
2022-10-01T04:15:28.405Z,98384.61
2022-10-01T04:20:56.819Z,98371.25
2022-10-01T04:26:11.887Z,98368.38
2022-10-01T04:31:35.558Z,98376.59
2022-10-01T04:36:38.446Z,98377.11
2022-10-01T04:41:49.124Z,98382.69
2022-10-01T04:46:54.230Z,98388.86
2022-10-01T04:52:01.034Z,98390.14
2022-10-01T04:57:04.672Z,98389.02
2022-10-01T05:02:10.613Z,98387.02
2022-10-01T05:07:30.289Z,98384.81
2022-10-01T05:13:11.067Z,98388.98
2022-10-01T05:18:14.890Z,98381.82
2022-10-01T05:23:25.155Z,98380.36
2022-10-01T05:28:50.332Z,98372.85
2022-10-01T05:33:56.924Z,98374.20
2022-10-01T05:39:15.267Z,98375.55
2022-10-01T05:45:01.308Z,98378.50
2022-10-01T05:50:13.110Z,98381.56
2022-10-01T05:55:27.766Z,98381.98
2022-10-01T06:00:35.972Z,98385.48
2022-10-01T06:05:44.992Z,98389.84
2022-10-01T06:10:51.846Z,98386.63
2022-10-01T06:15:57.013Z,98383.80
2022-10-01T06:21:01.755Z,98377.38
2022-10-01T06:26:19.764Z,98371.39
2022-10-01T06:31:39.302Z,98371.46
2022-10-01T06:37:07.143Z,98371.95
2022-10-01T06:42:11.163Z,98373.46
2022-10-01T06:47:13.524Z,98372.54
2022-10-01T06:52:53.197Z,98369.99
2022-10-01T06:58:01.415Z,98376.02
2022-10-01T07:03:14.090Z,98372.17
2022-10-01T07:08:42.020Z,98368.45
2022-10-01T07:13:44.512Z,98363.53
2022-10-01T07:18:47.623Z,98365.54
2022-10-01T07:23:54.497Z,98354.39
2022-10-01T07:28:59.555Z,98354.76
2022-10-01T07:34:04.223Z,98350.19
2022-10-01T07:39:25.297Z,98353.36
2022-10-01T07:45:14.932Z,98354.64
2022-10-01T07:50:20.734Z,98348.63
2022-10-01T07:55:26.987Z,98340.04
2022-10-01T08:00:33.029Z,98342.80
2022-10-01T08:05:41.492Z,98343.58
2022-10-01T08:10:44.637Z,98336.30
2022-10-01T08:15:59.393Z,98334.91
2022-10-01T08:21:23.840Z,98333.52
2022-10-01T08:26:54.457Z,98333.36
2022-10-01T08:32:21.970Z,98330.35
2022-10-01T08:37:29.396Z,98330.11
2022-10-01T08:42:44.972Z,98334.30
2022-10-01T08:48:01.584Z,98331.90
2022-10-01T08:53:13.949Z,98332.26
2022-10-01T08:58:25.865Z,98335.04
2022-10-01T09:03:33.614Z,98334.14
2022-10-01T09:08:54.192Z,98329.01
2022-10-01T09:14:32.506Z,98323.26
2022-10-01T09:20:08.442Z,98313.52
2022-10-01T09:26:00.156Z,98308.10
2022-10-01T09:31:52.051Z,98301.94
2022-10-01T09:37:06.951Z,98300.77
2022-10-01T09:42:39.887Z,98297.48
2022-10-01T09:47:48.740Z,98299.40
2022-10-01T09:53:17.586Z,98296.44
2022-10-01T09:58:23.340Z,98284.34
2022-10-01T10:03:38.017Z,98278.50
2022-10-01T10:09:18.329Z,98275.13
2022-10-01T10:14:41.338Z,98270.59
2022-10-01T10:20:03.195Z,98252.15
2022-10-01T10:25:32.576Z,98245.03
2022-10-01T10:30:37.174Z,98233.48
2022-10-01T10:35:43.254Z,98226.09
2022-10-01T10:40:46.797Z,98218.35
2022-10-01T10:45:56.856Z,98210.73
2022-10-01T10:51:02.574Z,98191.95
2022-10-01T10:56:06.544Z,98189.38
2022-10-01T11:01:33.116Z,98177.28
2022-10-01T11:06:55.024Z,98155.27
2022-10-01T11:12:27.793Z,98144.61
2022-10-01T11:18:10.652Z,98141.76
2022-10-01T11:23:37.703Z,98134.22
2022-10-01T11:29:09.036Z,98123.21
2022-10-01T11:34:48.824Z,98110.95
2022-10-01T11:40:03.417Z,98097.46
2022-10-01T11:45:32.127Z,98092.91
2022-10-01T11:50:39.816Z,98091.87
2022-10-01T11:56:22.974Z,98088.64
2022-10-01T12:02:01.307Z,98090.39
2022-10-01T12:07:13.472Z,98083.91
2022-10-01T12:12:42.797Z,98077.14
2022-10-01T12:18:19.425Z,98072.98
2022-10-01T12:23:50.498Z,98063.39
2022-10-01T12:29:24.713Z,98063.92
2022-10-01T12:34:53.859Z,98056.11
2022-10-01T12:40:18.047Z,98052.91
2022-10-01T12:45:43.919Z,98052.38
2022-10-01T12:51:16.494Z,98049.10
2022-10-01T12:57:11.433Z,98043.08
2022-10-01T13:02:45.982Z,98041.92
2022-10-01T13:08:38.286Z,98036.81
2022-10-01T13:13:43.008Z,98032.98
2022-10-01T13:19:34.644Z,98032.44
2022-10-01T13:25:13.278Z,98022.45
2022-10-01T13:31:11.299Z,98024.92
2022-10-01T13:36:49.559Z,98019.35
2022-10-01T13:41:58.560Z,98019.71
2022-10-01T13:47:07.055Z,98014.77
2022-10-01T13:52:22.016Z,98011.77
2022-10-01T13:58:04.940Z,98001.23
2022-10-01T14:03:23.635Z,97988.98
2022-10-01T14:08:31.244Z,97988.21
2022-10-01T14:14:01.706Z,97981.21
2022-10-01T14:19:04.744Z,97975.31
2022-10-01T14:24:28.622Z,97976.20
2022-10-01T14:30:11.799Z,97974.38
2022-10-01T14:35:32.979Z,97958.64
2022-10-01T14:40:41.279Z,97949.34
2022-10-01T14:46:14.032Z,97944.39
2022-10-01T14:51:51.587Z,97941.60
2022-10-01T14:56:53.899Z,97939.85
2022-10-01T15:02:01.904Z,97935.69
2022-10-01T15:07:12.803Z,97934.02
2022-10-01T15:12:40.423Z,97927.02
2022-10-01T15:17:43.222Z,97927.70
2022-10-01T15:23:01.091Z,97927.42
2022-10-01T15:28:14.580Z,97923.32
2022-10-01T15:33:50.221Z,97920.72
2022-10-01T15:39:13.997Z,97926.92
2022-10-01T15:44:38.570Z,97929.05
2022-10-01T15:49:40.909Z,97924.48
2022-10-01T15:55:05.268Z,97928.67
2022-10-01T16:00:22.387Z,97925.88
2022-10-01T16:05:36.260Z,97913.92
2022-10-01T16:10:45.766Z,97907.40
2022-10-01T16:16:20.766Z,97901.04
2022-10-01T16:22:18.864Z,97893.76
2022-10-01T16:27:31.799Z,97896.94
2022-10-01T16:32:52.134Z,97897.02
2022-10-01T16:37:58.047Z,97901.38
2022-10-01T16:43:11.083Z,97897.26
2022-10-01T16:48:19.719Z,97894.36
2022-10-01T16:53:29.643Z,97881.33
2022-10-01T16:58:32.712Z,97879.95
2022-10-01T17:03:35.854Z,97880.20
2022-10-01T17:08:38.291Z,97873.19
2022-10-01T17:13:43.682Z,97877.21
2022-10-01T17:18:48.758Z,97878.62
2022-10-01T17:24:02.317Z,97880.27
2022-10-01T17:29:06.907Z,97882.02
2022-10-01T17:34:09.012Z,97881.38
2022-10-01T17:39:11.208Z,97882.63
2022-10-01T17:44:36.983Z,97883.04
2022-10-01T17:49:39.686Z,97892.83
2022-10-01T17:54:41.788Z,97909.45
2022-10-01T17:59:44.047Z,97919.75
2022-10-01T18:04:47.090Z,97927.05
2022-10-01T18:09:55.775Z,97930.64
2022-10-01T18:14:58.146Z,97940.86
2022-10-01T18:20:00.398Z,97943.23
2022-10-01T18:25:03.647Z,97943.69
2022-10-01T18:30:10.380Z,97941.20
2022-10-01T18:35:41.425Z,97943.95
2022-10-01T18:40:56.535Z,97944.02
2022-10-01T18:46:43.187Z,97950.80
2022-10-01T18:52:25.852Z,97952.73
2022-10-01T18:58:01.561Z,97956.36
2022-10-01T19:03:35.851Z,97969.13
2022-10-01T19:09:09.947Z,97990.23
2022-10-01T19:14:39.100Z,97992.20
2022-10-01T19:20:53.673Z,97994.77
2022-10-01T19:26:10.069Z,98002.12
2022-10-01T19:31:44.354Z,97999.02
2022-10-01T19:37:12.558Z,97998.91
2022-10-01T19:42:29.711Z,98001.45
2022-10-01T19:48:06.503Z,98009.29
2022-10-01T19:53:24.055Z,98007.34
2022-10-01T19:58:26.927Z,98007.38
2022-10-01T20:03:44.660Z,98010.54
2022-10-01T20:09:20.274Z,98008.98
2022-10-01T20:15:07.261Z,98008.38
2022-10-01T20:20:16.299Z,98009.77
2022-10-01T20:25:33.955Z,98011.98
2022-10-01T20:31:05.767Z,98021.23
2022-10-01T20:36:17.552Z,98018.34
2022-10-01T20:41:30.275Z,98021.35
2022-10-01T20:46:43.494Z,98023.77
2022-10-01T20:51:58.427Z,98032.81
2022-10-01T20:57:14.095Z,98036.80
2022-10-01T21:03:01.804Z,98045.48
2022-10-01T21:09:02.081Z,98050.52
2022-10-01T21:14:20.819Z,98052.13
2022-10-01T21:20:02.840Z,98049.80
2022-10-01T21:26:19.168Z,98054.05
2022-10-01T21:31:33.434Z,98061.61
2022-10-01T21:37:03.215Z,98062.20
2022-10-01T21:42:16.710Z,98054.17
2022-10-01T21:48:04.112Z,98059.80
2022-10-01T21:53:57.255Z,98057.90
2022-10-01T21:59:11.900Z,98061.72
2022-10-01T22:04:38.718Z,98062.73
2022-10-01T22:09:53.525Z,98072.47
2022-10-01T22:14:59.274Z,98071.02
2022-10-01T22:20:04.871Z,98067.77
2022-10-01T22:25:28.504Z,98075.73
2022-10-01T22:30:34.597Z,98082.98
2022-10-01T22:36:15.772Z,98089.34
2022-10-01T22:41:47.123Z,98092.52
2022-10-01T22:47:50.386Z,98091.33
2022-10-01T22:53:50.364Z,98091.67
2022-10-01T22:59:12.939Z,98094.27
2022-10-01T23:05:08.666Z,98100.99
2022-10-01T23:10:47.488Z,98109.75
2022-10-01T23:16:14.580Z,98113.86
2022-10-01T23:21:42.820Z,98116.77
2022-10-01T23:27:19.811Z,98119.61
2022-10-01T23:32:51.115Z,98121.77
2022-10-01T23:39:01.809Z,98133.71
2022-10-01T23:44:52.722Z,98135.06
2022-10-01T23:50:27.901Z,98133.27
2022-10-01T23:56:01.019Z,98140.41
